Ueckermuende, Germany

3:49 PM CET on March 05, 2015 (GMT +0100)
Nowe Warpno | Change Station
CLOSE
Current Station
Personal Weather Station
Location: Nowe Warpno, WOJEWóDZTWO ZACHODNIOPOMORSKIE
Elevation: 20 ft
Nearby Weather Stations

Elev 20 ft 53.72 °N, 14.28 °E | Updated 26 seconds ago

Scattered Clouds
Scattered Clouds
42.6 °F
Feels Like 39 °F
N
5.6
Wind Variable Wind from WSW
Gusts 7.4 mph

Today
High -- | Low -- °F
--% Chance of Precip.
Yesterday
High -- | Low -- °F
Precip. -- in
6:43 AM 5:48 PM
Full, 100% visible
Pressure 30.45 in
Visibility 6.2 miles
Clouds Scattered Clouds 2200 ft
Windchill 39 °F
Dew Point 30 °F
Humidity 60%
Rainfall in
Snow Depth Not available.
UV 1.0 out of 12
Pollen Not available.
Air Quality Not available.
Flu Activity Not available.
METAR EDAH 051450Z 34008KT 300V010 9999 SCT022 06/00 Q1031

More Conditions Fewer Conditions

Pressure 30.45 in
Visibility 6.2 miles
Clouds Scattered Clouds 2200 ft
Windchill 39 °F
Dew Point 30 °F
Humidity 60%
Rainfall in
Snow Depth Not available.
UV 1.0 out of 12
Pollen Not available.
Air Quality Not available.
Flu Activity Not available.
METAR EDAH 051450Z 34008KT 300V010 9999 SCT022 06/00 Q1031

More Conditions Fewer Conditions

10-Day Weather Forecast

Almanac

Astronomy

Mar. 05, 2015 Rise Set
Actual Time
Civil Twilight
Nautical Twilight
Astronomical Twilight
Moon
Length of Visible Light
Length of Day
Tomorrow will be .
, % of the Moon is Illuminated

Today's Extremes

Country Highs Country Lows

Community

WunderPhotos

Upload Photos

1,802,789 photos uploaded!

WunderBlogs® & News

Nearby

Air Quality

  Air Quality AQ Index Pollutant
Not available.

Snow Depth

Station Depth Elevation

Earthquake Activity

City Distance Mag. Time & Date
Minimum magnitude displayed is 2.5.

Coastal Water Temperatures

Place Temperature

Nearby Weather Stations